American Spirit — WDC4277 — position and weather

sailwx.info

Track history (hours):
 
Tides and Currents Weather Stations Pressure Air Temp Water Temp Dewpoint Dewpoint Depression Visibility Wind Speed Wind Dir Waves Ship Positions

American Spirit

Owner: AMERICAN WORKBOATS INC, TERMINAL ISLAND, CA. More information available from US FCC via Universal Licensing System and Coast Guard Vessel Documentation Center.

Last reported at 2017-Apr-26 00:47 UTC. Time now 2017-Apr-26 04:14 UTC.
Position N 33°37' W 117°55'.

Length 3 m; draft 10 m.

Type: Tug. MMSI: 367022090.

Date/timePositionNaut miles runAvg speedWind from/ knotsBaromVisibWave heightAir tempDewpointWater temp
2017-Apr-26 00:47N 33°37' W 117°55'0 1.1
2017-Apr-26 00:30N 33°37' W 117°55'2 3.5
2017-Apr-26 00:00N 33°36' W 117°53'2 3.6
2017-Apr-25 23:30N 33°34' W 117°53'3 5.5
2017-Apr-25 23:00N 33°31' W 117°53'0 0.9
2017-Apr-25 22:29N 33°32' W 117°53'2 3.8
2017-Apr-25 21:59N 33°34' W 117°53'2 3.2
2017-Apr-25 21:28N 33°35' W 117°53'2 3.3
2017-Apr-25 21:00N 33°36' W 117°54'1 1.4
2017-Apr-25 20:27N 33°37' W 117°55'0 0.7
2017-Apr-25 20:01N 33°37' W 117°55'0 0.0
2017-Apr-25 19:30N 33°37' W 117°55'0 0.0
2017-Apr-25 19:00N 33°37' W 117°55'0 0.0
2017-Apr-25 18:30N 33°37' W 117°55'0 0.0
2017-Apr-24 23:15N 33°37' W 117°55'0 1.4
2017-Apr-24 23:00N 33°37' W 117°55'2 3.2
2017-Apr-24 22:30N 33°36' W 117°53'2 4.4
2017-Apr-24 22:00N 33°34' W 117°53'3 5.4
2017-Apr-24 21:30N 33°31' W 117°53'1 2.1
2017-Apr-24 20:59N 33°32' W 117°53'2 4.4
2017-Apr-24 20:30N 33°34' W 117°53'2 3.4
2017-Apr-24 20:01N 33°36' W 117°53'2 3.2
2017-Apr-24 19:31N 33°37' W 117°55'0 0.2
2017-Apr-24 19:01N 33°37' W 117°55'0 0.7
2017-Apr-24 18:30N 33°37' W 117°55'  
2017-Apr-19 01:30N 33°37' W 117°55'1 2.1
2017-Apr-19 00:59N 33°36' W 117°54'1 2.7
2017-Apr-19 00:30N 33°35' W 117°53'3 5.2
2017-Apr-19 00:00N 33°33' W 117°53'2 3.2
2017-Apr-18 23:30N 33°31' W 117°53'2 4.7
2017-Apr-18 23:00N 33°33' W 117°53'2 4.0
2017-Apr-18 22:30N 33°35' W 117°53'1 1.9
2017-Apr-18 22:00N 33°36' W 117°54'1 2.5
2017-Apr-18 21:30N 33°37' W 117°55'0 0.7
2017-Apr-18 21:00N 33°37' W 117°55'0 0.0
2017-Apr-18 20:30N 33°37' W 117°55'0 0.0
2017-Apr-18 20:00N 33°37' W 117°55'0 0.0
2017-Apr-18 19:30N 33°37' W 117°55'0 0.0
2017-Apr-18 00:25N 33°37' W 117°55'1 1.6
2017-Apr-18 00:00N 33°37' W 117°54'1 2.9
2017-Apr-17 23:30N 33°36' W 117°53'2 3.6
2017-Apr-17 23:00N 33°34' W 117°52'3 5.4
2017-Apr-17 22:31N 33°31' W 117°53'1 2.1
2017-Apr-17 22:00N 33°32' W 117°53'2 4.8
2017-Apr-17 21:30N 33°35' W 117°53'1 2.8
2017-Apr-17 21:00N 33°36' W 117°53'2 3.1
2017-Apr-17 20:30N 33°37' W 117°55'0 0.1
2017-Apr-17 20:00N 33°37' W 117°55'0 0.6
2017-Apr-17 19:30N 33°37' W 117°55'  
Track history (hours):
 
Tides and Currents Weather Stations Pressure Air Temp Water Temp Dewpoint Dewpoint Depression Visibility Wind Speed Wind Dir Waves Ship Positions

American Spirit

Owner: AMERICAN WORKBOATS INC, TERMINAL ISLAND, CA. More information available from US FCC via Universal Licensing System and Coast Guard Vessel Documentation Center.

Last reported at 2017-Apr-26 00:47 UTC. Time now 2017-Apr-26 04:14 UTC.
Position N 33°37' W 117°55'.

Length 3 m; draft 10 m.

Type: Tug. MMSI: 367022090.

Date/timePositionNaut miles runAvg speedWind from/ knotsBaromVisibWave heightAir tempDewpointWater temp
2017-Apr-26 00:47N 33°37' W 117°55'0 1.1
2017-Apr-26 00:30N 33°37' W 117°55'2 3.5
2017-Apr-26 00:00N 33°36' W 117°53'2 3.6
2017-Apr-25 23:30N 33°34' W 117°53'3 5.5
2017-Apr-25 23:00N 33°31' W 117°53'0 0.9
2017-Apr-25 22:29N 33°32' W 117°53'2 3.8
2017-Apr-25 21:59N 33°34' W 117°53'2 3.2
2017-Apr-25 21:28N 33°35' W 117°53'2 3.3
2017-Apr-25 21:00N 33°36' W 117°54'1 1.4
2017-Apr-25 20:27N 33°37' W 117°55'0 0.7
2017-Apr-25 20:01N 33°37' W 117°55'0 0.0
2017-Apr-25 19:30N 33°37' W 117°55'0 0.0
2017-Apr-25 19:00N 33°37' W 117°55'0 0.0
2017-Apr-25 18:30N 33°37' W 117°55'0 0.0
2017-Apr-24 23:15N 33°37' W 117°55'0 1.4
2017-Apr-24 23:00N 33°37' W 117°55'2 3.2
2017-Apr-24 22:30N 33°36' W 117°53'2 4.4
2017-Apr-24 22:00N 33°34' W 117°53'3 5.4
2017-Apr-24 21:30N 33°31' W 117°53'1 2.1
2017-Apr-24 20:59N 33°32' W 117°53'2 4.4
2017-Apr-24 20:30N 33°34' W 117°53'2 3.4
2017-Apr-24 20:01N 33°36' W 117°53'2 3.2
2017-Apr-24 19:31N 33°37' W 117°55'0 0.2
2017-Apr-24 19:01N 33°37' W 117°55'0 0.7
2017-Apr-24 18:30N 33°37' W 117°55'  
2017-Apr-19 01:30N 33°37' W 117°55'1 2.1
2017-Apr-19 00:59N 33°36' W 117°54'1 2.7
2017-Apr-19 00:30N 33°35' W 117°53'3 5.2
2017-Apr-19 00:00N 33°33' W 117°53'2 3.2
2017-Apr-18 23:30N 33°31' W 117°53'2 4.7
2017-Apr-18 23:00N 33°33' W 117°53'2 4.0
2017-Apr-18 22:30N 33°35' W 117°53'1 1.9
2017-Apr-18 22:00N 33°36' W 117°54'1 2.5
2017-Apr-18 21:30N 33°37' W 117°55'0 0.7
2017-Apr-18 21:00N 33°37' W 117°55'0 0.0
2017-Apr-18 20:30N 33°37' W 117°55'0 0.0
2017-Apr-18 20:00N 33°37' W 117°55'0 0.0
2017-Apr-18 19:30N 33°37' W 117°55'0 0.0
2017-Apr-18 00:25N 33°37' W 117°55'1 1.6
2017-Apr-18 00:00N 33°37' W 117°54'1 2.9
2017-Apr-17 23:30N 33°36' W 117°53'2 3.6
2017-Apr-17 23:00N 33°34' W 117°52'3 5.4
2017-Apr-17 22:31N 33°31' W 117°53'1 2.1
2017-Apr-17 22:00N 33°32' W 117°53'2 4.8
2017-Apr-17 21:30N 33°35' W 117°53'1 2.8
2017-Apr-17 21:00N 33°36' W 117°53'2 3.1
2017-Apr-17 20:30N 33°37' W 117°55'0 0.1
2017-Apr-17 20:00N 33°37' W 117°55'0 0.6
2017-Apr-17 19:30N 33°37' W 117°55'  

Dump ship's entire track history